Aplicació Alertes

Dades de l'estació automàtica el Poal

?
?
Resum diari 22:30 TU
Dades diàries de l'estació meteorològica
Temperatura mitjana 1.6 °C
Temperatura màxima 9.0 °C 15:25 TU
Temperatura mínima -5.1 °C 7:12 TU
Humitat relativa mitjana 79%
Precipitació acumulada 0.0 mm
Ratxa màxima del vent (2 m) 24.5 km/h - 244º 13:58 TU
Irradiació solar global 9.6 MJ/m2

El tram horari està expressat en Temps Universal (TU). Cal sumar una hora en horari d'hivern i dues en horari d'estiu per passar a l'hora oficial.

el Poal

Metadades estació meteorol´gica
Municipi El Poal
Comarca Pla d'Urgell
Altitud 223 m
Data alta 14.09.1989
Estat actual Operativa
Dades de període
Període
TU
TM
°C
TX
°C
TN
°C
HRM
%
PPT
mm
VVM (2 m)
km/h
DVM (2 m)
graus
VVX (2 m)
km/h
RS
W/m2
00:00 - 00:30 -0.1 0.7 -0.8 90 0.0 2.9 294 6.8 0
00:30 - 01:00 -0.5 0.0 -1.1 93 0.0 2.2 216 6.5 0
01:00 - 01:30 -0.6 -0.1 -1.0 93 0.0 4.7 170 7.9 0
01:30 - 02:00 0.0 0.2 -0.6 92 0.0 4.7 191 9.0 0
02:00 - 02:30 0.8 1.0 0.4 86 0.0 5.8 221 10.1 0
02:30 - 03:00 0.1 0.7 -0.5 88 0.0 3.2 277 6.8 0
03:00 - 03:30 -0.7 -0.4 -1.2 91 0.0 3.2 281 6.1 0
03:30 - 04:00 -1.9 -1.3 -2.2 94 0.0 2.5 109 7.6 0
04:00 - 04:30 -2.1 -1.7 -2.7 96 0.0 1.4 119 3.2 0
04:30 - 05:00 -3.1 -2.5 -3.5 96 0.0 2.2 113 5.8 0
05:00 - 05:30 -3.2 -2.5 -3.6 96 0.0 4.7 150 7.2 0
05:30 - 06:00 -2.7 -2.2 -3.3 94 0.0 3.2 153 8.3 0
06:00 - 06:30 -3.8 -3.0 -4.4 95 0.0 2.9 110 5.8 0
06:30 - 07:00 -3.7 -3.3 -4.5 94 0.0 3.6 127 7.2 0
07:00 - 07:30 -4.4 -3.9 -5.1 94 0.0 4.0 35 9.0 6
07:30 - 08:00 -3.8 -3.3 -4.1 94 0.0 3.2 84 11.2 102
08:00 - 08:30 -2.6 -1.8 -3.2 92 0.0 1.4 37 4.7 204
08:30 - 09:00 -1.4 -0.6 -1.8 90 0.0 2.9 35 4.7 257
09:00 - 09:30 0.4 1.4 -0.5 88 0.0 3.2 27 8.6 384
09:30 - 10:00 2.3 3.4 1.5 82 0.0 2.5 359 7.6 352
10:00 - 10:30 3.1 3.4 2.7 80 0.0 6.1 257 11.2 394
10:30 - 11:00 3.7 4.2 3.3 77 0.0 7.6 230 14.0 426
11:00 - 11:30 4.3 5.0 4.0 73 0.0 7.9 233 15.1 451
11:30 - 12:00 5.1 5.5 4.9 67 0.0 9.7 246 17.3 461
12:00 - 12:30 6.1 6.6 5.5 64 0.0 11.9 233 17.6 454
12:30 - 13:00 7.0 7.5 6.6 59 0.0 13.3 237 20.9 434
13:00 - 13:30 7.9 8.4 7.5 53 0.0 12.6 252 22.0 401
13:30 - 14:00 8.4 8.7 8.2 50 0.0 14.4 254 24.5 356
14:00 - 14:30 8.5 8.6 8.4 50 0.0 13.7 264 22.0 297
14:30 - 15:00 8.8 8.9 8.5 50 0.0 11.2 251 19.4 205
15:00 - 15:30 8.9 9.0 8.5 50 0.0 8.3 258 14.8 148
15:30 - 16:00 8.5 9.0 7.7 50 0.0 6.5 288 10.8 73
16:00 - 16:30 7.0 7.6 6.3 54 0.0 4.7 289 7.9 16
16:30 - 17:00 5.1 6.2 3.9 61 0.0 3.6 170 6.8 0
17:00 - 17:30 3.7 4.2 2.8 67 0.0 3.2 193 5.4 0
17:30 - 18:00 3.0 3.9 2.2 70 0.0 5.0 158 7.9 0
18:00 - 18:30 2.6 3.9 0.6 71 0.0 3.2 146 7.2 0
18:30 - 19:00 1.0 2.0 0.3 78 0.0 4.3 131 9.0 0
19:00 - 19:30 0.0 1.2 -0.6 81 0.0 2.9 95 6.1 0
19:30 - 20:00 -0.4 0.0 -1.1 83 0.0 2.2 56 5.8 0
20:00 - 20:30 -0.8 -0.4 -1.2 85 0.0 4.3 131 7.6 0
20:30 - 21:00 0.1 2.1 -0.8 84 0.0 3.2 153 8.3 0
21:00 - 21:30 2.1 2.5 1.8 78 0.0 4.0 210 7.6 0
21:30 - 22:00 1.7 2.5 1.1 79 0.0 2.5 340 6.5 0
22:00 - 22:30 0.5 1.2 -0.2 83 0.0 2.9 80 7.2 0
22:30 - 23:00 0.3 0.7 0.0 85 0.0 3.6 142 6.5 0

Les dades en taronja només han passat un control de qualitat automàtic. Resta pendent la seva validació definitiva.